Latest Weather Observations for Gladstone

IDQ60801

Issued at 12:02 am EST Friday 22 September 2017 (issued every 30 minutes, with the page automatically refreshed every 10 minutes)

About weather observations | Map of weather stations | Latest weather observations for QLD | Other Formats
Station Details ID: 039123 Name: GLADSTONE RADAR Lat: -23.86 Lon: 151.26 Height: 74.5 m
Data from the previous 72 hours. | See also: Recent months at Gladstone
Date/Time
EST
Temp
°C
App
Temp
°C
Dew
Point
°C
Rel
Hum
%
Delta-T
°C
Wind Press
QNH
hPa
Press
MSL
hPa
Rain since
9am
mm
Dir  Spd
km/h
Gust
km/h
Spd
kts
Gust
kts
21/11:30pm 20.8 21.0 18.6 87 1.4 NNE 15 22 8 12 1018.2 1018.0 0.0
21/11:00pm 20.6 21.6 18.7 89 1.2 NNE 11 19 6 10 1018.2 1018.0 0.0
21/10:30pm 20.4 21.6 18.3 88 1.3 NNE 9 17 5 9 1017.9 1017.7 0.0
21/10:00pm 20.4 21.6 18.3 88 1.3 NNE 9 15 5 8 1018.0 1017.8 0.0
21/09:30pm 20.4 21.5 18.0 86 1.5 NNE 9 13 5 7 1018.1 1017.9 0.0
21/09:00pm 20.7 21.9 18.3 86 1.5 NNE 9 15 5 8 1018.1 1017.9 0.0
21/08:30pm 20.8 21.9 18.0 84 1.7 NNE 9 13 5 7 1018.0 1017.8 0.0
21/08:00pm 20.9 21.9 17.7 82 2.0 NNE 9 15 5 8 1018.0 1017.8 0.0
21/07:30pm 21.0 22.0 17.8 82 2.0 NNE 9 17 5 9 1017.6 1017.4 0.0
21/07:00pm 21.2 21.3 17.4 79 2.3 NNE 13 22 7 12 1017.4 1017.2 0.0
21/06:30pm 21.4 21.9 17.4 78 2.5 NNE 11 22 6 12 1017.1 1016.9 0.0
21/06:00pm 21.6 21.8 17.6 78 2.5 NNE 13 20 7 11 1016.9 1016.7 0.0
21/05:30pm 22.1 22.1 17.2 74 3.0 NNE 13 20 7 11 1016.4 1016.2 0.0
21/05:00pm 22.7 22.3 17.2 71 3.4 NE 15 22 8 12 1016.2 1016.0 0.0
21/04:30pm 23.6 23.1 16.9 66 4.1 NE 15 24 8 13 1016.1 1015.9 0.0
21/04:00pm 24.8 24.1 17.3 63 4.7 NE 17 24 9 13 1015.8 1015.6 0.0
21/03:30pm 25.6 25.5 17.0 59 5.4 NE 13 26 7 14 1015.8 1015.6 0.0
21/03:00pm 26.3 26.0 17.4 58 5.6 NE 15 24 8 13 1015.7 1015.4 0.0
21/02:30pm 26.7 26.1 17.5 57 5.8 NE 17 24 9 13 1015.8 1015.6 0.0
21/02:00pm 26.9 26.4 16.8 54 6.3 NE 15 24 8 13 1016.1 1015.9 0.0
21/01:30pm 27.6 27.3 18.3 57 5.9 NE 17 24 9 13 1016.4 1016.2 0.0
21/01:00pm 27.6 27.3 18.3 57 5.9 NE 17 26 9 14 1016.7 1016.5 0.0
21/12:30pm 28.9 29.5 18.7 54 6.6 NE 13 22 7 12 1017.3 1017.1 0.0
21/12:00pm 29.1 29.5 18.2 51 7.0 NE 13 22 7 12 1017.7 1017.5 0.0
21/11:30am 28.6 28.4 17.5 51 7.0 NNE 15 20 8 11 1018.2 1018.0 0.0
21/11:00am 28.3 28.8 17.5 52 6.8 NE 11 19 6 10 1018.6 1018.4 0.0
21/10:30am 26.5 26.7 17.6 58 5.6 ENE 13 19 7 10 1019.0 1018.8 0.0
21/10:00am 26.4 26.5 17.5 58 5.6 ENE 13 19 7 10 1019.4 1019.1 0.0
21/09:30am 25.4 25.3 17.8 62 4.8 ENE 15 20 8 11 1019.4 1019.1 0.0
21/09:00am 25.8 26.0 17.7 61 5.1 ENE 13 17 7 9 1019.4 1019.1 0.0
21/08:30am 24.7 25.8 18.9 70 3.7 E 11 15 6 8 1019.2 1019.0 0.0
21/08:00am 22.9 25.0 19.3 80 2.3 ESE 7 13 4 7 1019.4 1019.1 0.0
21/07:30am 22.0 23.6 19.2 84 1.8 ESE 9 13 5 7 1019.1 1018.9 0.0
21/07:00am 20.6 22.3 18.5 88 1.3 ESE 7 11 4 6 1018.8 1018.6 0.0
21/06:30am 19.3 20.5 18.3 94 0.6 ESE 9 13 5 7 1018.4 1018.2 0.0
21/06:00am 18.7 19.4 18.0 96 0.4 ESE 11 15 6 8 1018.0 1017.8 0.0
21/05:30am 18.7 19.5 18.2 97 0.3 ESE 11 15 6 8 1017.6 1017.4 0.0
21/05:00am 18.8 19.7 18.3 97 0.3 E 11 15 6 8 1017.3 1017.1 0.0
21/04:30am 18.7 19.5 18.2 97 0.3 E 11 13 6 7 1017.1 1016.9 0.0
21/04:00am 18.9 20.2 18.4 97 0.3 E 9 13 5 7 1016.9 1016.7 0.0
21/03:30am 18.9 19.8 18.4 97 0.3 E 11 13 6 7 1016.7 1016.5 0.0
21/03:00am 19.1 20.6 18.8 98 0.2 E 9 11 5 6 1016.6 1016.4 0.0
21/02:30am 18.9 19.8 18.4 97 0.3 E 11 15 6 8 1016.7 1016.5 0.0
21/02:00am 19.0 19.9 18.3 96 0.4 ENE 11 13 6 7 1016.7 1016.5 0.0
21/01:30am 19.4 20.8 18.6 95 0.5 NE 9 11 5 6 1016.8 1016.6 0.0
21/01:00am 19.5 20.4 18.5 94 0.6 NE 11 13 6 7 1016.7 1016.5 0.0
21/12:30am 19.7 20.6 18.5 93 0.7 NE 11 11 6 6 1016.9 1016.7 0.0
21/12:00am 19.6 20.8 18.3 92 0.8 NE 9 11 5 6 1017.1 1016.9 0.0
 
Date/Time
EST
Temp
°C
App
Temp
°C
Dew
Point
°C
Rel
Hum
%
Delta-T
°C
Wind Press
QNH
hPa
Press
MSL
hPa
Rain since
9am
mm
Dir  Spd
km/h
Gust
km/h
Spd
kts
Gust
kts
20/11:30pm 19.7 21.5 18.4 92 0.8 NE 6 9 3 5 1017.3 1017.1 0.0
20/11:00pm 20.0 22.0 18.8 93 0.8 NE 6 9 3 5 1017.3 1017.1 0.0
20/10:30pm 20.2 22.3 18.9 92 0.8 NE 6 7 3 4 1017.3 1017.1 0.0
20/10:00pm 20.3 23.5 18.8 91 0.9 CALM 0 7 0 4 1017.5 1017.3 0.0
20/09:30pm 20.2 23.1 18.3 89 1.2 CALM 0 0 0 0 1017.3 1017.1 0.0
20/09:00pm 20.4 22.1 18.5 89 1.2 NE 7 11 4 6 1017.3 1017.1 0.0
20/08:30pm 20.6 22.1 18.9 90 1.1 NE 9 15 5 8 1017.1 1016.9 0.0
20/08:00pm 20.8 22.3 18.9 89 1.2 NE 9 13 5 7 1017.0 1016.8 0.0
20/07:30pm 21.0 22.4 18.6 86 1.5 NE 9 15 5 8 1016.5 1016.3 0.0
20/07:00pm 21.1 21.5 18.1 83 1.9 NE 13 19 7 10 1016.4 1016.2 0.0
20/06:30pm 21.3 22.3 17.7 80 2.2 NE 9 17 5 9 1016.0 1015.8 0.0
20/06:00pm 21.8 22.0 17.6 77 2.6 NNE 13 20 7 11 1015.3 1015.0 0.0
20/05:30pm 22.4 21.8 16.7 70 3.5 NNE 15 20 8 11 1014.9 1014.6 0.0
20/05:00pm 23.5 23.1 16.3 64 4.4 NNE 13 20 7 11 1014.4 1014.1 0.0
20/04:30pm 24.2 22.9 15.9 59 5.0 NNE 17 24 9 13 1014.2 1013.9 0.0
20/04:00pm 24.5 23.7 17.0 63 4.6 NNE 17 32 9 17 1014.0 1013.7 0.0
20/03:30pm 25.6 24.3 17.3 60 5.2 NNE 20 32 11 17 1013.8 1013.5 0.0
20/03:00pm 26.8 26.7 17.0 55 6.1 NNE 13 26 7 14 1013.8 1013.5 0.0
20/02:30pm 26.4 24.7 16.3 53 6.2 NNE 20 30 11 16 1014.0 1013.7 0.0
20/02:00pm 27.9 26.6 16.8 50 6.9 NNE 19 28 10 15 1014.5 1014.2 0.0
20/01:30pm 27.1 25.1 15.5 49 7.1 NNE 20 28 11 15 1015.0 1014.7 0.0
20/01:00pm 28.1 27.4 16.4 49 7.3 NE 15 26 8 14 1015.5 1015.2 0.0
20/12:30pm 27.6 26.7 16.9 52 6.7 NNE 17 26 9 14 1016.1 1015.9 0.0
20/12:00pm 28.4 26.8 15.0 44 8.2 NNE 17 24 9 13 1016.7 1016.5 0.0
20/11:30am 30.7 30.9 16.7 43 8.8 NE 11 20 6 11 1017.1 1016.9 0.0
20/11:00am 29.2 29.0 15.7 44 8.3 E 11 19 6 10 1017.8 1017.6 0.0
20/10:30am 27.1 27.5 14.8 47 7.4 WSW 6 13 3 7 1018.4 1018.2 0.0
20/10:00am 26.5 27.0 14.9 49 7.0 WSW 6 13 3 7 1018.8 1018.6 0.0
20/09:30am 24.3 24.6 14.4 54 5.9 WSW 6 9 3 5 1019.0 1018.8 0.0
20/09:00am 23.0 23.8 14.8 60 4.9 WSW 4 9 2 5 1019.5 1019.2 0.0
20/08:30am 21.7 23.1 15.3 67 3.8 WSW 2 7 1 4 1019.6 1019.3 0.0
20/08:00am 20.6 21.6 15.4 72 3.1 WSW 4 9 2 5 1019.9 1019.6 0.0
20/07:30am 19.9 21.6 15.3 75 2.7 CALM 0 0 0 0 1019.8 1019.5 0.0
20/07:00am 18.8 19.4 15.3 80 2.1 WSW 6 7 3 4 1019.4 1019.1 0.0
20/06:30am 18.5 19.0 15.0 80 2.0 WSW 6 9 3 5 1018.8 1018.6 0.0
20/06:00am 18.2 18.7 15.1 82 1.8 WSW 6 7 3 4 1018.5 1018.3 0.0
20/05:30am 17.9 18.3 15.2 84 1.6 WSW 7 9 4 5 1018.2 1018.0 0.0
20/05:00am 18.0 18.3 15.1 83 1.7 WSW 7 9 4 5 1017.4 1017.2 0.0
20/04:30am 18.2 18.2 15.3 83 1.7 WSW 9 13 5 7 1016.8 1016.6 0.0
20/04:00am 18.3 18.7 15.4 83 1.7 N 7 11 4 6 1016.6 1016.4 0.0
20/03:30am 18.5 18.9 15.4 82 1.8 N 7 11 4 6 1016.9 1016.7 0.0
20/03:00am 18.5 18.9 15.2 81 1.9 N 7 9 4 5 1016.7 1016.5 0.0
20/02:30am 18.8 19.4 15.3 80 2.1 N 6 7 3 4 1016.9 1016.7 0.0
20/02:00am 19.1 21.0 15.8 81 2.0 CALM 0 6 0 3 1017.3 1017.1 0.0
20/01:30am 19.2 20.4 15.9 81 2.0 N 4 7 2 4 1017.7 1017.5 0.0
20/01:00am 19.2 19.9 15.7 80 2.1 N 6 7 3 4 1017.8 1017.6 0.0
20/12:30am 19.4 20.1 15.7 79 2.2 N 6 7 3 4 1018.1 1017.9 0.0
20/12:00am 19.6 20.3 15.5 77 2.4 N 6 7 3 4 1018.5 1018.3 0.0
 
Date/Time
EST
Temp
°C
App
Temp
°C
Dew
Point
°C
Rel
Hum
%
Delta-T
°C
Wind Press
QNH
hPa
Press
MSL
hPa
Rain since
9am
mm
Dir  Spd
km/h
Gust
km/h
Spd
kts
Gust
kts
19/11:30pm 19.6 21.0 15.3 76 2.5 N 2 6 1 3 1018.6 1018.4 0.0
19/11:00pm 19.9 20.5 15.3 75 2.7 N 6 7 3 4 1019.1 1018.9 0.0
19/10:30pm 20.2 20.6 15.4 74 2.8 N 7 11 4 6 1019.4 1019.1 0.0
19/10:00pm 20.0 20.6 15.4 75 2.7 N 6 7 3 4 1019.7 1019.4 0.0
19/09:30pm 20.4 21.0 15.4 73 3.0 N 6 9 3 5 1019.0 1018.8 0.0
19/09:00pm 20.6 21.0 15.2 71 3.2 N 7 11 4 6 1019.4 1019.1 0.0
19/08:30pm 20.9 21.0 15.4 71 3.3 N 9 13 5 7 1020.0 1019.7 0.0
19/08:00pm 21.0 21.6 15.8 72 3.1 N 7 11 4 6 1020.1 1019.8 0.0
19/07:30pm 21.0 21.5 15.5 71 3.3 N 7 13 4 7 1020.1 1019.8 0.0
19/07:00pm 21.0 21.6 15.3 70 3.4 N 6 11 3 6 1019.7 1019.4 0.0
19/06:30pm 21.2 21.0 14.8 67 3.8 N 9 17 5 9 1020.2 1019.9 0.0
19/06:00pm 21.3 21.5 14.7 66 3.9 N 7 11 4 6 1019.5 1019.2 0.0
19/05:30pm 21.7 21.2 14.8 65 4.1 N 11 19 6 10 1019.4 1019.1 0.0
19/05:00pm 22.1 22.0 15.0 64 4.2 NNE 9 19 5 10 1018.4 1018.2 0.0
19/04:30pm 22.7 22.2 15.0 61 4.6 NNE 11 20 6 11 1018.2 1018.0 0.0
19/04:00pm 23.0 22.1 14.8 60 4.9 NNE 13 20 7 11 1018.2 1018.0 0.0
19/03:30pm 23.6 22.8 15.1 59 5.1 NE 13 20 7 11 1018.5 1018.3 0.0
19/03:00pm 24.4 24.1 16.4 61 4.9 NE 13 24 7 13 1018.4 1018.2 0.0
19/02:30pm 24.5 23.8 16.5 61 4.9 NE 15 26 8 14 1018.9 1018.7 0.0
19/02:00pm 24.8 23.9 16.8 61 4.9 NE 17 26 9 14 1019.7 1019.4 0.0
19/01:30pm 25.5 24.1 15.5 54 6.1 NNE 17 26 9 14 1020.2 1019.9 0.0
19/01:00pm 26.9 25.7 16.2 52 6.6 NE 17 26 9 14 1020.3 1020.0 0.0
19/12:30pm 27.5 26.3 16.1 49 7.0 NE 17 24 9 13 1020.6 1020.3 0.0
19/12:00pm 27.6 27.0 15.6 48 7.3 NE 13 20 7 11 1021.1 1020.8 0.0
19/11:30am 26.6 25.6 16.5 54 6.3 ENE 17 22 9 12 1021.6 1021.3 0.0
19/11:00am 26.8 26.0 17.0 55 6.1 ENE 17 24 9 13 1022.1 1021.8 0.0
19/10:30am 25.8 24.7 16.4 56 5.8 ENE 17 26 9 14 1022.4 1022.1 0.0
19/10:00am 26.1 25.6 16.9 57 5.7 E 15 20 8 11 1022.6 1022.3 0.0
19/09:30am 24.8 24.3 16.8 61 4.9 ENE 15 20 8 11 1023.0 1022.7 0.0
19/09:00am 23.9 22.8 16.4 63 4.6 E 17 24 9 13 1022.9 1022.6 0.0
19/08:30am 22.5 22.2 16.5 69 3.7 ESE 13 20 7 11 1022.8 1022.5 0.0
19/08:00am 21.4 21.3 16.1 72 3.2 SE 11 20 6 11 1023.0 1022.7 0.0
19/07:30am 19.9 20.1 15.7 77 2.5 SE 9 15 5 8 1022.9 1022.6 0.0
19/07:00am 19.1 18.6 16.0 82 1.8 SE 13 20 7 11 1022.5 1022.2 0.0
19/06:30am 18.0 17.4 15.6 86 1.4 SE 13 20 7 11 1022.3 1022.0 0.0
19/06:00am 17.7 16.3 15.5 87 1.3 SSE 17 24 9 13 1021.9 1021.6 0.0
19/05:30am 17.6 16.1 15.2 86 1.4 SSE 17 20 9 11 1021.7 1021.4 0.0
19/05:00am 17.7 17.0 15.3 86 1.4 SSE 13 17 7 9 1021.8 1021.5 0.0
19/04:30am 17.8 16.7 15.4 86 1.4 SSE 15 20 8 11 1021.3 1021.0 0.0
19/04:00am 17.8 16.3 15.2 85 1.5 S 17 24 9 13 1021.2 1020.9 0.0
19/03:30am 18.0 16.9 15.3 84 1.6 SSE 15 19 8 10 1021.4 1021.1 0.0
19/03:00am 18.1 17.4 15.4 84 1.6 SSE 13 19 7 10 1021.5 1021.2 0.0
19/02:30am 18.2 17.0 15.1 82 1.8 SSE 15 20 8 11 1021.6 1021.3 0.0
19/02:00am 18.3 17.1 15.0 81 1.9 SE 15 20 8 11 1021.9 1021.6 0.0
19/01:30am 18.3 17.1 15.0 81 1.9 SE 15 20 8 11 1022.3 1022.0 0.0
19/01:00am 18.6 17.8 15.1 80 2.0 SE 13 20 7 11 1022.6 1022.3 0.0
19/12:30am 18.5 17.3 15.0 80 2.0 SE 15 20 8 11 1022.9 1022.6 0.0

Other Formats:

Comma delimited format used in spreadsheet applications
http://www.bom.gov.au/fwo/IDQ60801/IDQ60801.94380.axf

JavaScript Object Notation format (JSON) in row-major order
http://www.bom.gov.au/fwo/IDQ60801/IDQ60801.94380.json